Hlavní strana
METAR-TAF:

METAR-TAF

Letiště :

Person County Airport

Roxboro, Severní Karolína, Spojené státy americké

zeměpisná šířka: 36-17-06N, zeměpisná délka: 078-59-03W, výška: 186 m

Aktuální stav počasí

Zpráva byla vytvořena před 26 minutami, v 21:35 UTC
Východoseverovýchodní vítr 11 kt
Teplota 20°C
Vlhkost vzduchu 28%
Tlak 1014 hPa
Viditelnost: 16.1 km
Jasno

METAR: KTDF 042135Z AUTO 06011KT 10SM CLR 20/01 A2995 RMK AO2

Čas: 18:01 (22:01 UTC)


TAF: chybějící

Stav a předpovědi počasí z více než 4 000 letišť (zprávy METAR a TAF).

Červené a žluté tečky na mapě představují dostupné meteorologické stanice.

Když kurzor umístíte na tečku, zobrazí se název stanice.

Pak kliknutím zobrazíte stav a předpověď počasí.

Chcete-li změnit mapu, kliknutím na zelené tlačítko se znaménkem +mapu přiblížíte, kliknutím na zelené tlačítko se znaménkem – mapu oddálíte a kliknutím na zelené šipky přejdete na sousední mapy.


METAR-TAF: